sensor_id;sensor_type;location;lat;lon;timestamp;P1;durP1;ratioP1;P2;durP2;ratioP2
43429;SDS011;29028;43.234;27.896;2022-09-09T04:01:48;3.90;;;2.35;;
43429;SDS011;29028;43.234;27.896;2022-09-09T04:02:10;3.67;;;2.30;;
43429;SDS011;29028;43.234;27.896;2022-09-09T04:02:31;3.40;;;2.30;;
43429;SDS011;29028;43.234;27.896;2022-09-09T04:02:52;3.13;;;2.10;;
43429;SDS011;29028;43.234;27.896;2022-09-09T04:03:16;3.65;;;2.15;;
43429;SDS011;29028;43.234;27.896;2022-09-09T04:03:38;4.53;;;2.07;;
43429;SDS011;29028;43.234;27.896;2022-09-09T04:04:00;5.30;;;2.10;;
43429;SDS011;29028;43.234;27.896;2022-09-09T04:04:22;3.60;;;2.03;;
43429;SDS011;29028;43.234;27.896;2022-09-09T04:04:43;3.75;;;2.05;;
43429;SDS011;29028;43.234;27.896;2022-09-09T04:05:04;6.75;;;2.13;;
43429;SDS011;29028;43.234;27.896;2022-09-09T04:05:27;7.13;;;2.40;;
43429;SDS011;29028;43.234;27.896;2022-09-09T04:05:48;5.73;;;2.00;;
43429;SDS011;29028;43.234;27.896;2022-09-09T04:06:10;5.22;;;2.20;;
43429;SDS011;29028;43.234;27.896;2022-09-09T04:06:33;5.65;;;2.10;;
43429;SDS011;29028;43.234;27.896;2022-09-09T04:06:54;4.85;;;2.05;;
43429;SDS011;29028;43.234;27.896;2022-09-09T04:07:16;3.63;;;1.85;;
43429;SDS011;29028;43.234;27.896;2022-09-09T04:07:37;4.15;;;2.00;;
43429;SDS011;29028;43.234;27.896;2022-09-09T04:07:57;5.40;;;2.10;;
43429;SDS011;29028;43.234;27.896;2022-09-09T04:08:18;6.30;;;1.90;;
43429;SDS011;29028;43.234;27.896;2022-09-09T04:08:40;5.38;;;2.45;;
43429;SDS011;29028;43.234;27.896;2022-09-09T04:09:02;3.67;;;2.00;;
43429;SDS011;29028;43.234;27.896;2022-09-09T04:09:24;3.85;;;2.00;;
43429;SDS011;29028;43.234;27.896;2022-09-09T04:09:45;4.97;;;1.85;;
43429;SDS011;29028;43.234;27.896;2022-09-09T04:10:06;4.67;;;1.93;;
43429;SDS011;29028;43.234;27.896;2022-09-09T04:10:29;4.85;;;2.08;;
43429;SDS011;29028;43.234;27.896;2022-09-09T04:10:52;4.50;;;2.10;;
43429;SDS011;29028;43.234;27.896;2022-09-09T04:11:15;4.65;;;2.20;;
43429;SDS011;29028;43.234;27.896;2022-09-09T04:11:37;5.28;;;2.13;;
43429;SDS011;29028;43.234;27.896;2022-09-09T04:11:58;5.82;;;2.15;;
43429;SDS011;29028;43.234;27.896;2022-09-09T04:12:19;4.37;;;2.00;;
43429;SDS011;29028;43.234;27.896;2022-09-09T04:12:40;3.50;;;2.03;;
43429;SDS011;29028;43.234;27.896;2022-09-09T04:13:00;3.03;;;1.85;;
43429;SDS011;29028;43.234;27.896;2022-09-09T04:13:22;3.53;;;1.88;;
43429;SDS011;29028;43.234;27.896;2022-09-09T04:13:44;3.42;;;1.80;;
43429;SDS011;29028;43.234;27.896;2022-09-09T04:14:05;3.67;;;1.60;;
43429;SDS011;29028;43.234;27.896;2022-09-09T04:14:26;2.77;;;1.70;;
43429;SDS011;29028;43.234;27.896;2022-09-09T04:14:48;5.32;;;1.90;;
43429;SDS011;29028;43.234;27.896;2022-09-09T04:15:09;4.85;;;1.80;;
43429;SDS011;29028;43.234;27.896;2022-09-09T04:15:30;3.20;;;1.70;;
43429;SDS011;29028;43.234;27.896;2022-09-09T04:15:52;3.97;;;1.60;;
43429;SDS011;29028;43.234;27.896;2022-09-09T04:16:17;3.50;;;1.80;;
43429;SDS011;29028;43.234;27.896;2022-09-09T04:16:38;3.17;;;1.80;;
43429;SDS011;29028;43.234;27.896;2022-09-09T04:17:02;3.60;;;1.58;;
43429;SDS011;29028;43.234;27.896;2022-09-09T04:17:26;4.85;;;2.00;;
43429;SDS011;29028;43.234;27.896;2022-09-09T04:17:48;3.00;;;1.75;;
43429;SDS011;29028;43.234;27.896;2022-09-09T04:18:09;4.22;;;1.80;;
43429;SDS011;29028;43.234;27.896;2022-09-09T04:18:32;5.07;;;1.90;;
43429;SDS011;29028;43.234;27.896;2022-09-09T04:18:57;6.32;;;1.77;;
43429;SDS011;29028;43.234;27.896;2022-09-09T04:19:20;4.93;;;1.70;;
43429;SDS011;29028;43.234;27.896;2022-09-09T04:19:41;4.32;;;1.67;;
43429;SDS011;29028;43.234;27.896;2022-09-09T04:20:03;4.90;;;1.80;;
43429;SDS011;29028;43.234;27.896;2022-09-09T04:20:24;6.93;;;1.90;;
43429;SDS011;29028;43.234;27.896;2022-09-09T04:20:46;4.70;;;1.77;;
43429;SDS011;29028;43.234;27.896;2022-09-09T04:21:08;4.32;;;1.80;;
43429;SDS011;29028;43.234;27.896;2022-09-09T04:21:30;4.47;;;1.90;;
43429;SDS011;29028;43.234;27.896;2022-09-09T04:21:51;3.17;;;1.80;;
43429;SDS011;29028;43.234;27.896;2022-09-09T04:22:13;4.20;;;1.75;;
43429;SDS011;29028;43.234;27.896;2022-09-09T04:22:34;3.17;;;1.88;;
43429;SDS011;29028;43.234;27.896;2022-09-09T04:22:55;4.67;;;1.90;;
43429;SDS011;29028;43.234;27.896;2022-09-09T04:23:20;4.55;;;1.95;;
43429;SDS011;29028;43.234;27.896;2022-09-09T04:23:41;4.78;;;2.00;;
43429;SDS011;29028;43.234;27.896;2022-09-09T04:24:03;4.45;;;1.83;;
43429;SDS011;29028;43.234;27.896;2022-09-09T04:24:24;2.58;;;1.58;;
43429;SDS011;29028;43.234;27.896;2022-09-09T04:24:49;4.70;;;1.67;;
43429;SDS011;29028;43.234;27.896;2022-09-09T04:25:10;5.72;;;1.90;;
43429;SDS011;29028;43.234;27.896;2022-09-09T04:25:34;3.50;;;1.88;;
43429;SDS011;29028;43.234;27.896;2022-09-09T04:25:58;3.67;;;1.67;;
43429;SDS011;29028;43.234;27.896;2022-09-09T04:26:22;4.80;;;1.70;;
43429;SDS011;29028;43.234;27.896;2022-09-09T04:26:43;8.90;;;1.77;;
43429;SDS011;29028;43.234;27.896;2022-09-09T04:27:07;6.18;;;1.88;;
43429;SDS011;29028;43.234;27.896;2022-09-09T04:27:28;8.15;;;1.80;;
43429;SDS011;29028;43.234;27.896;2022-09-09T04:27:52;9.88;;;1.88;;
43429;SDS011;29028;43.234;27.896;2022-09-09T04:28:15;8.38;;;2.00;;
43429;SDS011;29028;43.234;27.896;2022-09-09T04:28:39;10.75;;;1.92;;
43429;SDS011;29028;43.234;27.896;2022-09-09T04:29:00;11.20;;;2.15;;
43429;SDS011;29028;43.234;27.896;2022-09-09T04:29:21;12.25;;;2.28;;
43429;SDS011;29028;43.234;27.896;2022-09-09T04:29:42;11.90;;;2.28;;
43429;SDS011;29028;43.234;27.896;2022-09-09T04:30:12;10.15;;;1.90;;
43429;SDS011;29028;43.234;27.896;2022-09-09T04:30:33;5.22;;;1.60;;
43429;SDS011;29028;43.234;27.896;2022-09-09T04:30:56;5.20;;;1.75;;
43429;SDS011;29028;43.234;27.896;2022-09-09T04:31:17;8.05;;;1.90;;
43429;SDS011;29028;43.234;27.896;2022-09-09T04:31:42;8.30;;;1.67;;
43429;SDS011;29028;43.234;27.896;2022-09-09T04:32:16;9.15;;;1.70;;
43429;SDS011;29028;43.234;27.896;2022-09-09T04:32:37;6.88;;;2.00;;
43429;SDS011;29028;43.234;27.896;2022-09-09T04:32:59;6.63;;;1.77;;
43429;SDS011;29028;43.234;27.896;2022-09-09T04:33:21;5.80;;;1.63;;
43429;SDS011;29028;43.234;27.896;2022-09-09T04:33:41;4.93;;;1.75;;
43429;SDS011;29028;43.234;27.896;2022-09-09T04:34:02;6.43;;;1.80;;
43429;SDS011;29028;43.234;27.896;2022-09-09T04:34:25;5.50;;;1.65;;
43429;SDS011;29028;43.234;27.896;2022-09-09T04:34:46;6.22;;;1.70;;
43429;SDS011;29028;43.234;27.896;2022-09-09T04:35:17;5.68;;;1.88;;
43429;SDS011;29028;43.234;27.896;2022-09-09T04:35:43;6.40;;;1.73;;
43429;SDS011;29028;43.234;27.896;2022-09-09T04:36:06;5.72;;;1.65;;
43429;SDS011;29028;43.234;27.896;2022-09-09T04:36:27;5.53;;;1.85;;
43429;SDS011;29028;43.234;27.896;2022-09-09T04:36:48;5.68;;;1.83;;
43429;SDS011;29028;43.234;27.896;2022-09-09T04:37:09;4.90;;;1.75;;
43429;SDS011;29028;43.234;27.896;2022-09-09T04:37:31;8.73;;;2.10;;
43429;SDS011;29028;43.234;27.896;2022-09-09T04:37:52;9.15;;;2.20;;
43429;SDS011;29028;43.234;27.896;2022-09-09T04:38:13;11.73;;;2.30;;
43429;SDS011;29028;43.234;27.896;2022-09-09T04:38:34;11.73;;;2.17;;
43429;SDS011;29028;43.234;27.896;2022-09-09T04:38:56;13.10;;;2.47;;
43429;SDS011;29028;43.234;27.896;2022-09-09T04:39:18;11.82;;;2.60;;
43429;SDS011;29028;43.234;27.896;2022-09-09T04:39:39;12.38;;;2.55;;
43429;SDS011;29028;43.234;27.896;2022-09-09T04:40:10;11.93;;;2.47;;
43429;SDS011;29028;43.234;27.896;2022-09-09T04:40:31;15.95;;;2.85;;
43429;SDS011;29028;43.234;27.896;2022-09-09T04:40:53;16.33;;;2.70;;
43429;SDS011;29028;43.234;27.896;2022-09-09T04:41:14;16.80;;;3.03;;
43429;SDS011;29028;43.234;27.896;2022-09-09T04:41:36;23.23;;;3.13;;
43429;SDS011;29028;43.234;27.896;2022-09-09T04:41:57;23.67;;;3.00;;
43429;SDS011;29028;43.234;27.896;2022-09-09T04:42:20;19.30;;;2.92;;
43429;SDS011;29028;43.234;27.896;2022-09-09T04:42:41;20.70;;;2.90;;
43429;SDS011;29028;43.234;27.896;2022-09-09T04:43:04;20.88;;;2.75;;
43429;SDS011;29028;43.234;27.896;2022-09-09T04:43:34;15.38;;;2.60;;
43429;SDS011;29028;43.234;27.896;2022-09-09T04:43:56;21.30;;;3.05;;
43429;SDS011;29028;43.234;27.896;2022-09-09T04:44:21;23.10;;;2.90;;
43429;SDS011;29028;43.234;27.896;2022-09-09T04:44:42;17.65;;;2.95;;
43429;SDS011;29028;43.234;27.896;2022-09-09T04:45:04;21.08;;;3.00;;
43429;SDS011;29028;43.234;27.896;2022-09-09T04:45:27;23.77;;;3.13;;
43429;SDS011;29028;43.234;27.896;2022-09-09T04:45:48;21.87;;;3.17;;
43429;SDS011;29028;43.234;27.896;2022-09-09T04:46:11;14.30;;;2.83;;
43429;SDS011;29028;43.234;27.896;2022-09-09T04:46:37;18.83;;;2.88;;
43429;SDS011;29028;43.234;27.896;2022-09-09T04:46:59;17.33;;;2.95;;
43429;SDS011;29028;43.234;27.896;2022-09-09T04:47:21;16.90;;;3.08;;
43429;SDS011;29028;43.234;27.896;2022-09-09T04:47:42;20.60;;;3.42;;
43429;SDS011;29028;43.234;27.896;2022-09-09T04:48:03;20.90;;;3.00;;
43429;SDS011;29028;43.234;27.896;2022-09-09T04:48:25;20.80;;;2.75;;
43429;SDS011;29028;43.234;27.896;2022-09-09T04:48:45;20.67;;;2.60;;
43429;SDS011;29028;43.234;27.896;2022-09-09T04:49:07;20.20;;;2.67;;
43429;SDS011;29028;43.234;27.896;2022-09-09T04:49:28;20.13;;;3.00;;
43429;SDS011;29028;43.234;27.896;2022-09-09T04:49:51;17.58;;;2.75;;
43429;SDS011;29028;43.234;27.896;2022-09-09T04:50:14;12.85;;;2.60;;
43429;SDS011;29028;43.234;27.896;2022-09-09T04:50:35;13.15;;;2.47;;
43429;SDS011;29028;43.234;27.896;2022-09-09T04:50:58;14.02;;;2.67;;
43429;SDS011;29028;43.234;27.896;2022-09-09T04:51:20;14.75;;;2.50;;
43429;SDS011;29028;43.234;27.896;2022-09-09T04:51:40;16.90;;;2.80;;
43429;SDS011;29028;43.234;27.896;2022-09-09T04:52:03;19.08;;;2.90;;
43429;SDS011;29028;43.234;27.896;2022-09-09T04:52:24;14.02;;;3.20;;
43429;SDS011;29028;43.234;27.896;2022-09-09T04:52:45;17.17;;;2.90;;
43429;SDS011;29028;43.234;27.896;2022-09-09T04:53:06;23.33;;;3.20;;
43429;SDS011;29028;43.234;27.896;2022-09-09T04:53:27;17.15;;;2.95;;
43429;SDS011;29028;43.234;27.896;2022-09-09T04:53:49;17.60;;;3.10;;
43429;SDS011;29028;43.234;27.896;2022-09-09T04:54:10;13.05;;;2.70;;
43429;SDS011;29028;43.234;27.896;2022-09-09T04:54:31;12.93;;;2.60;;
43429;SDS011;29028;43.234;27.896;2022-09-09T04:54:53;10.73;;;2.60;;
43429;SDS011;29028;43.234;27.896;2022-09-09T04:55:14;13.20;;;2.75;;
43429;SDS011;29028;43.234;27.896;2022-09-09T04:55:35;11.82;;;2.80;;
43429;SDS011;29028;43.234;27.896;2022-09-09T04:56:01;15.70;;;2.85;;
43429;SDS011;29028;43.234;27.896;2022-09-09T04:56:24;10.57;;;2.72;;
43429;SDS011;29028;43.234;27.896;2022-09-09T04:56:47;10.73;;;2.75;;
43429;SDS011;29028;43.234;27.896;2022-09-09T04:57:07;11.48;;;2.50;;
43429;SDS011;29028;43.234;27.896;2022-09-09T04:57:34;12.38;;;2.70;;
43429;SDS011;29028;43.234;27.896;2022-09-09T04:57:56;12.32;;;2.72;;
43429;SDS011;29028;43.234;27.896;2022-09-09T04:58:17;16.20;;;2.83;;
43429;SDS011;29028;43.234;27.896;2022-09-09T04:58:38;13.20;;;2.50;;
43429;SDS011;29028;43.234;27.896;2022-09-09T04:59:01;10.15;;;2.67;;
43429;SDS011;29028;43.234;27.896;2022-09-09T04:59:24;12.40;;;2.70;;
43429;SDS011;29028;43.234;27.896;2022-09-09T04:59:45;10.15;;;2.67;;
43429;SDS011;29028;43.234;27.896;2022-09-09T05:00:06;11.88;;;2.38;;
43429;SDS011;29028;43.234;27.896;2022-09-09T05:00:28;9.25;;;2.25;;
43429;SDS011;29028;43.234;27.896;2022-09-09T05:00:50;13.13;;;2.55;;
43429;SDS011;29028;43.234;27.896;2022-09-09T05:01:12;11.88;;;2.85;;
43429;SDS011;29028;43.234;27.896;2022-09-09T05:01:34;12.10;;;2.55;;
43429;SDS011;29028;43.234;27.896;2022-09-09T05:01:56;11.57;;;2.40;;
43429;SDS011;29028;43.234;27.896;2022-09-09T05:02:17;10.35;;;2.50;;
43429;SDS011;29028;43.234;27.896;2022-09-09T05:02:40;10.07;;;2.47;;
43429;SDS011;29028;43.234;27.896;2022-09-09T05:03:02;7.60;;;2.30;;
43429;SDS011;29028;43.234;27.896;2022-09-09T05:03:24;7.80;;;2.50;;
43429;SDS011;29028;43.234;27.896;2022-09-09T05:03:45;9.07;;;2.65;;
43429;SDS011;29028;43.234;27.896;2022-09-09T05:04:07;9.35;;;2.17;;
43429;SDS011;29028;43.234;27.896;2022-09-09T05:04:29;7.70;;;2.33;;
43429;SDS011;29028;43.234;27.896;2022-09-09T05:04:49;8.05;;;2.17;;
43429;SDS011;29028;43.234;27.896;2022-09-09T05:05:10;8.75;;;2.10;;
43429;SDS011;29028;43.234;27.896;2022-09-09T05:05:32;7.32;;;2.10;;
43429;SDS011;29028;43.234;27.896;2022-09-09T05:05:55;6.63;;;2.08;;
43429;SDS011;29028;43.234;27.896;2022-09-09T05:06:24;9.15;;;2.40;;
43429;SDS011;29028;43.234;27.896;2022-09-09T05:06:44;12.27;;;2.42;;
43429;SDS011;29028;43.234;27.896;2022-09-09T05:07:06;13.50;;;2.58;;
43429;SDS011;29028;43.234;27.896;2022-09-09T05:07:28;8.43;;;2.58;;
43429;SDS011;29028;43.234;27.896;2022-09-09T05:07:50;7.65;;;2.40;;
43429;SDS011;29028;43.234;27.896;2022-09-09T05:08:11;10.35;;;2.20;;
43429;SDS011;29028;43.234;27.896;2022-09-09T05:08:32;8.50;;;2.25;;
43429;SDS011;29028;43.234;27.896;2022-09-09T05:08:53;9.10;;;2.53;;
43429;SDS011;29028;43.234;27.896;2022-09-09T05:09:14;8.98;;;2.00;;
43429;SDS011;29028;43.234;27.896;2022-09-09T05:09:35;9.40;;;2.30;;
43429;SDS011;29028;43.234;27.896;2022-09-09T05:09:56;10.18;;;2.40;;
43429;SDS011;29028;43.234;27.896;2022-09-09T05:10:18;8.93;;;2.10;;
43429;SDS011;29028;43.234;27.896;2022-09-09T05:10:39;5.47;;;2.00;;
43429;SDS011;29028;43.234;27.896;2022-09-09T05:11:02;5.60;;;1.90;;
43429;SDS011;29028;43.234;27.896;2022-09-09T05:11:23;5.97;;;1.70;;
43429;SDS011;29028;43.234;27.896;2022-09-09T05:11:47;3.83;;;1.80;;
43429;SDS011;29028;43.234;27.896;2022-09-09T05:12:08;6.90;;;1.92;;
43429;SDS011;29028;43.234;27.896;2022-09-09T05:12:28;5.47;;;1.92;;
43429;SDS011;29028;43.234;27.896;2022-09-09T05:12:52;4.93;;;2.03;;
43429;SDS011;29028;43.234;27.896;2022-09-09T05:13:14;3.25;;;1.70;;
43429;SDS011;29028;43.234;27.896;2022-09-09T05:13:35;5.60;;;1.88;;
43429;SDS011;29028;43.234;27.896;2022-09-09T05:13:56;3.85;;;1.90;;
43429;SDS011;29028;43.234;27.896;2022-09-09T05:14:17;4.05;;;1.70;;
43429;SDS011;29028;43.234;27.896;2022-09-09T05:14:37;6.07;;;2.00;;
43429;SDS011;29028;43.234;27.896;2022-09-09T05:14:59;6.82;;;2.10;;
43429;SDS011;29028;43.234;27.896;2022-09-09T05:15:20;5.45;;;1.90;;
43429;SDS011;29028;43.234;27.896;2022-09-09T05:15:41;5.15;;;2.00;;
43429;SDS011;29028;43.234;27.896;2022-09-09T05:16:03;4.53;;;1.70;;
43429;SDS011;29028;43.234;27.896;2022-09-09T05:16:25;5.18;;;2.00;;
43429;SDS011;29028;43.234;27.896;2022-09-09T05:16:46;3.85;;;1.90;;
43429;SDS011;29028;43.234;27.896;2022-09-09T05:17:07;4.85;;;1.90;;
43429;SDS011;29028;43.234;27.896;2022-09-09T05:17:28;5.25;;;1.80;;
43429;SDS011;29028;43.234;27.896;2022-09-09T05:17:51;4.15;;;1.98;;
43429;SDS011;29028;43.234;27.896;2022-09-09T05:18:12;3.90;;;2.00;;
43429;SDS011;29028;43.234;27.896;2022-09-09T05:18:34;7.80;;;2.17;;
43429;SDS011;29028;43.234;27.896;2022-09-09T05:18:55;5.93;;;1.90;;
43429;SDS011;29028;43.234;27.896;2022-09-09T05:19:17;4.55;;;1.92;;
43429;SDS011;29028;43.234;27.896;2022-09-09T05:19:39;4.63;;;2.10;;
43429;SDS011;29028;43.234;27.896;2022-09-09T05:20:00;3.70;;;1.90;;
43429;SDS011;29028;43.234;27.896;2022-09-09T05:20:23;4.20;;;1.88;;
43429;SDS011;29028;43.234;27.896;2022-09-09T05:20:46;4.28;;;2.20;;
43429;SDS011;29028;43.234;27.896;2022-09-09T05:21:07;4.07;;;2.15;;
43429;SDS011;29028;43.234;27.896;2022-09-09T05:21:27;4.20;;;2.10;;
43429;SDS011;29028;43.234;27.896;2022-09-09T05:21:49;3.70;;;1.83;;
43429;SDS011;29028;43.234;27.896;2022-09-09T05:22:11;5.65;;;2.00;;
43429;SDS011;29028;43.234;27.896;2022-09-09T05:22:32;5.20;;;1.80;;
43429;SDS011;29028;43.234;27.896;2022-09-09T05:22:53;4.22;;;2.05;;
43429;SDS011;29028;43.234;27.896;2022-09-09T05:23:15;5.55;;;2.03;;
43429;SDS011;29028;43.234;27.896;2022-09-09T05:23:37;4.40;;;2.00;;
43429;SDS011;29028;43.234;27.896;2022-09-09T05:23:58;5.07;;;2.17;;
43429;SDS011;29028;43.234;27.896;2022-09-09T05:24:20;4.63;;;2.03;;
43429;SDS011;29028;43.234;27.896;2022-09-09T05:24:43;5.22;;;2.17;;
43429;SDS011;29028;43.234;27.896;2022-09-09T05:25:04;4.33;;;2.20;;
43429;SDS011;29028;43.234;27.896;2022-09-09T05:25:25;3.88;;;2.30;;
43429;SDS011;29028;43.234;27.896;2022-09-09T05:25:54;5.80;;;2.10;;
43429;SDS011;29028;43.234;27.896;2022-09-09T05:26:18;6.38;;;2.13;;
43429;SDS011;29028;43.234;27.896;2022-09-09T05:26:39;6.38;;;2.20;;
43429;SDS011;29028;43.234;27.896;2022-09-09T05:27:00;6.10;;;2.40;;
43429;SDS011;29028;43.234;27.896;2022-09-09T05:27:22;5.43;;;2.80;;
43429;SDS011;29028;43.234;27.896;2022-09-09T05:27:44;6.13;;;3.13;;
43429;SDS011;29028;43.234;27.896;2022-09-09T05:28:05;8.30;;;3.53;;
43429;SDS011;29028;43.234;27.896;2022-09-09T05:28:27;8.15;;;4.00;;
43429;SDS011;29028;43.234;27.896;2022-09-09T05:28:48;4.57;;;2.55;;
43429;SDS011;29028;43.234;27.896;2022-09-09T05:29:10;5.20;;;2.30;;
43429;SDS011;29028;43.234;27.896;2022-09-09T05:29:31;4.40;;;2.30;;
43429;SDS011;29028;43.234;27.896;2022-09-09T05:29:53;5.60;;;2.40;;
43429;SDS011;29028;43.234;27.896;2022-09-09T05:30:14;6.17;;;2.30;;
43429;SDS011;29028;43.234;27.896;2022-09-09T05:30:36;4.82;;;2.10;;
43429;SDS011;29028;43.234;27.896;2022-09-09T05:30:58;5.72;;;1.83;;
43429;SDS011;29028;43.234;27.896;2022-09-09T05:31:20;5.78;;;1.70;;
43429;SDS011;29028;43.234;27.896;2022-09-09T05:31:41;5.18;;;2.10;;
43429;SDS011;29028;43.234;27.896;2022-09-09T05:32:03;5.22;;;2.15;;
43429;SDS011;29028;43.234;27.896;2022-09-09T05:32:24;6.07;;;2.10;;
43429;SDS011;29028;43.234;27.896;2022-09-09T05:32:46;5.38;;;2.20;;
43429;SDS011;29028;43.234;27.896;2022-09-09T05:33:10;4.55;;;2.10;;
43429;SDS011;29028;43.234;27.896;2022-09-09T05:33:32;4.30;;;2.22;;
43429;SDS011;29028;43.234;27.896;2022-09-09T05:33:53;4.43;;;2.05;;
43429;SDS011;29028;43.234;27.896;2022-09-09T05:34:14;4.55;;;1.90;;
43429;SDS011;29028;43.234;27.896;2022-09-09T05:34:35;4.90;;;2.00;;
43429;SDS011;29028;43.234;27.896;2022-09-09T05:34:57;5.95;;;2.10;;
43429;SDS011;29028;43.234;27.896;2022-09-09T05:35:19;4.18;;;1.88;;
43429;SDS011;29028;43.234;27.896;2022-09-09T05:35:40;3.50;;;1.77;;
43429;SDS011;29028;43.234;27.896;2022-09-09T05:36:02;5.90;;;2.03;;
43429;SDS011;29028;43.234;27.896;2022-09-09T05:36:25;4.47;;;2.08;;
43429;SDS011;29028;43.234;27.896;2022-09-09T05:36:47;4.13;;;1.90;;
43429;SDS011;29028;43.234;27.896;2022-09-09T05:37:08;3.63;;;2.00;;
43429;SDS011;29028;43.234;27.896;2022-09-09T05:37:30;3.75;;;2.08;;
43429;SDS011;29028;43.234;27.896;2022-09-09T05:37:51;4.63;;;2.05;;
43429;SDS011;29028;43.234;27.896;2022-09-09T05:38:13;5.30;;;2.15;;
43429;SDS011;29028;43.234;27.896;2022-09-09T05:38:34;5.63;;;2.30;;
43429;SDS011;29028;43.234;27.896;2022-09-09T05:38:55;4.80;;;2.38;;
43429;SDS011;29028;43.234;27.896;2022-09-09T05:39:16;4.38;;;2.17;;
43429;SDS011;29028;43.234;27.896;2022-09-09T05:39:38;5.45;;;2.50;;
43429;SDS011;29028;43.234;27.896;2022-09-09T05:39:59;4.93;;;2.05;;
43429;SDS011;29028;43.234;27.896;2022-09-09T05:40:21;3.67;;;2.00;;
43429;SDS011;29028;43.234;27.896;2022-09-09T05:40:46;5.60;;;2.53;;
43429;SDS011;29028;43.234;27.896;2022-09-09T05:41:10;4.78;;;2.30;;
43429;SDS011;29028;43.234;27.896;2022-09-09T05:41:32;7.20;;;2.42;;
43429;SDS011;29028;43.234;27.896;2022-09-09T05:41:53;9.32;;;2.20;;
43429;SDS011;29028;43.234;27.896;2022-09-09T05:42:15;8.20;;;2.15;;
43429;SDS011;29028;43.234;27.896;2022-09-09T05:42:37;4.93;;;2.03;;
43429;SDS011;29028;43.234;27.896;2022-09-09T05:42:59;4.45;;;2.03;;
43429;SDS011;29028;43.234;27.896;2022-09-09T05:43:22;7.97;;;2.30;;
43429;SDS011;29028;43.234;27.896;2022-09-09T05:43:44;8.27;;;2.60;;
43429;SDS011;29028;43.234;27.896;2022-09-09T05:44:06;5.97;;;2.50;;
43429;SDS011;29028;43.234;27.896;2022-09-09T05:44:28;4.93;;;2.20;;
43429;SDS011;29028;43.234;27.896;2022-09-09T05:44:49;4.65;;;1.88;;
43429;SDS011;29028;43.234;27.896;2022-09-09T05:45:14;5.97;;;2.28;;
43429;SDS011;29028;43.234;27.896;2022-09-09T05:45:35;6.43;;;2.28;;
43429;SDS011;29028;43.234;27.896;2022-09-09T05:45:59;6.70;;;1.90;;
43429;SDS011;29028;43.234;27.896;2022-09-09T05:46:22;4.43;;;1.88;;
43429;SDS011;29028;43.234;27.896;2022-09-09T05:46:45;3.10;;;1.70;;
43429;SDS011;29028;43.234;27.896;2022-09-09T05:47:06;4.70;;;2.10;;
43429;SDS011;29028;43.234;27.896;2022-09-09T05:47:28;5.15;;;2.35;;
43429;SDS011;29028;43.234;27.896;2022-09-09T05:47:51;4.73;;;2.17;;
43429;SDS011;29028;43.234;27.896;2022-09-09T05:48:15;5.30;;;1.95;;
43429;SDS011;29028;43.234;27.896;2022-09-09T05:48:37;7.70;;;2.30;;
43429;SDS011;29028;43.234;27.896;2022-09-09T05:48:58;6.70;;;1.83;;
43429;SDS011;29028;43.234;27.896;2022-09-09T05:49:20;6.55;;;2.17;;
43429;SDS011;29028;43.234;27.896;2022-09-09T05:49:42;6.25;;;2.60;;
43429;SDS011;29028;43.234;27.896;2022-09-09T05:50:03;5.40;;;2.17;;
43429;SDS011;29028;43.234;27.896;2022-09-09T05:50:25;5.57;;;2.15;;
43429;SDS011;29028;43.234;27.896;2022-09-09T05:50:52;3.85;;;1.83;;
43429;SDS011;29028;43.234;27.896;2022-09-09T05:51:13;3.70;;;1.70;;
43429;SDS011;29028;43.234;27.896;2022-09-09T05:51:37;4.85;;;2.00;;
43429;SDS011;29028;43.234;27.896;2022-09-09T05:51:58;4.72;;;2.00;;
43429;SDS011;29028;43.234;27.896;2022-09-09T05:52:19;3.40;;;1.80;;
43429;SDS011;29028;43.234;27.896;2022-09-09T05:52:40;2.95;;;1.88;;
43429;SDS011;29028;43.234;27.896;2022-09-09T05:53:04;3.97;;;1.60;;
43429;SDS011;29028;43.234;27.896;2022-09-09T05:53:25;4.05;;;1.60;;
43429;SDS011;29028;43.234;27.896;2022-09-09T05:53:46;3.20;;;1.58;;
43429;SDS011;29028;43.234;27.896;2022-09-09T05:54:07;3.05;;;1.42;;
43429;SDS011;29028;43.234;27.896;2022-09-09T05:54:29;3.50;;;1.50;;
43429;SDS011;29028;43.234;27.896;2022-09-09T05:54:50;3.53;;;1.55;;
43429;SDS011;29028;43.234;27.896;2022-09-09T05:55:11;3.90;;;1.60;;
43429;SDS011;29028;43.234;27.896;2022-09-09T05:55:33;3.47;;;1.80;;
43429;SDS011;29028;43.234;27.896;2022-09-09T05:56:00;3.63;;;1.88;;
43429;SDS011;29028;43.234;27.896;2022-09-09T05:56:24;7.13;;;1.83;;
43429;SDS011;29028;43.234;27.896;2022-09-09T05:56:46;4.95;;;1.70;;
43429;SDS011;29028;43.234;27.896;2022-09-09T05:57:09;3.40;;;1.60;;
43429;SDS011;29028;43.234;27.896;2022-09-09T05:57:30;2.88;;;1.65;;
43429;SDS011;29028;43.234;27.896;2022-09-09T05:57:51;4.47;;;1.75;;
43429;SDS011;29028;43.234;27.896;2022-09-09T05:58:12;6.20;;;1.80;;
43429;SDS011;29028;43.234;27.896;2022-09-09T05:58:34;6.13;;;1.90;;
43429;SDS011;29028;43.234;27.896;2022-09-09T05:58:55;6.00;;;1.92;;
43429;SDS011;29028;43.234;27.896;2022-09-09T05:59:17;3.78;;;1.80;;
43429;SDS011;29028;43.234;27.896;2022-09-09T05:59:38;2.60;;;1.50;;
43429;SDS011;29028;43.234;27.896;2022-09-09T06:00:00;2.55;;;1.60;;
43429;SDS011;29028;43.234;27.896;2022-09-09T06:00:21;2.78;;;1.65;;
43429;SDS011;29028;43.234;27.896;2022-09-09T06:00:42;3.38;;;1.70;;
43429;SDS011;29028;43.234;27.896;2022-09-09T06:01:04;4.38;;;1.73;;
43429;SDS011;29028;43.234;27.896;2022-09-09T06:01:28;3.20;;;1.50;;
43429;SDS011;29028;43.234;27.896;2022-09-09T06:01:50;4.90;;;1.88;;
43429;SDS011;29028;43.234;27.896;2022-09-09T06:02:12;4.75;;;1.85;;
43429;SDS011;29028;43.234;27.896;2022-09-09T06:02:33;4.47;;;1.70;;
43429;SDS011;29028;43.234;27.896;2022-09-09T06:02:57;3.13;;;1.50;;
43429;SDS011;29028;43.234;27.896;2022-09-09T06:03:19;4.65;;;1.60;;
43429;SDS011;29028;43.234;27.896;2022-09-09T06:03:44;2.67;;;1.50;;
43429;SDS011;29028;43.234;27.896;2022-09-09T06:04:06;4.32;;;1.70;;
43429;SDS011;29028;43.234;27.896;2022-09-09T06:04:28;4.03;;;1.70;;
43429;SDS011;29028;43.234;27.896;2022-09-09T06:04:50;4.82;;;1.67;;
43429;SDS011;29028;43.234;27.896;2022-09-09T06:05:11;3.35;;;1.58;;
43429;SDS011;29028;43.234;27.896;2022-09-09T06:05:32;5.13;;;1.60;;
43429;SDS011;29028;43.234;27.896;2022-09-09T06:05:58;5.25;;;2.00;;
43429;SDS011;29028;43.234;27.896;2022-09-09T06:06:19;5.38;;;1.90;;
43429;SDS011;29028;43.234;27.896;2022-09-09T06:06:42;4.55;;;1.98;;
43429;SDS011;29028;43.234;27.896;2022-09-09T06:07:04;4.70;;;2.00;;
43429;SDS011;29028;43.234;27.896;2022-09-09T06:07:25;5.05;;;1.75;;
43429;SDS011;29028;43.234;27.896;2022-09-09T06:07:46;3.28;;;1.58;;
43429;SDS011;29028;43.234;27.896;2022-09-09T06:08:07;2.77;;;1.53;;
43429;SDS011;29028;43.234;27.896;2022-09-09T06:08:28;3.65;;;1.85;;
43429;SDS011;29028;43.234;27.896;2022-09-09T06:08:50;3.80;;;1.67;;
43429;SDS011;29028;43.234;27.896;2022-09-09T06:09:13;3.63;;;1.50;;
43429;SDS011;29028;43.234;27.896;2022-09-09T06:09:34;3.92;;;1.70;;
43429;SDS011;29028;43.234;27.896;2022-09-09T06:09:55;2.90;;;1.60;;
43429;SDS011;29028;43.234;27.896;2022-09-09T06:10:17;2.90;;;1.70;;
43429;SDS011;29028;43.234;27.896;2022-09-09T06:10:37;3.17;;;1.70;;
43429;SDS011;29028;43.234;27.896;2022-09-09T06:11:02;4.50;;;1.73;;
43429;SDS011;29028;43.234;27.896;2022-09-09T06:11:24;4.60;;;1.70;;
43429;SDS011;29028;43.234;27.896;2022-09-09T06:11:47;3.90;;;1.60;;
43429;SDS011;29028;43.234;27.896;2022-09-09T06:12:07;3.87;;;1.70;;